In Rescue
 
Open Full Screen Window  High Contrast Mode
November 29, 2022 8:03 AM CST
Weather Information
Wind Direction
  ---
Wind Speed
  00 kt (0 mph)
Wind Gust
  00 kt (0 mph)
Altimeter
29.71 in
Visibility
10 SM
Temperature
-03° C
27° F
Dewpoint
-08° C
18° F
Humidity
69%
1hr Rain Fall
00.00 in.
24hr Rain Fall
00.00 in.
Sky Condition
Overcast @ 4,500 ft
VFR

METAR KHZX 291403Z AUTO 00000KT 10SM OVC045 M03/M08 A2971 RMK AO2

FAA Disclaimer: The data displayed is for advisory purposes only and is not to be used for flight planning or operations.